sensor_id;sensor_type;location;lat;lon;timestamp;P1;durP1;ratioP1;P2;durP2;ratioP2
27636;SDS011;15049;48.114;11.486;2022-07-23T00:01:20;6.22;;;5.20;;
27636;SDS011;15049;48.114;11.486;2022-07-23T00:03:45;7.70;;;5.70;;
27636;SDS011;15049;48.114;11.486;2022-07-23T00:06:11;7.82;;;5.28;;
27636;SDS011;15049;48.114;11.486;2022-07-23T00:08:37;6.32;;;5.72;;
27636;SDS011;15049;48.114;11.486;2022-07-23T00:11:03;8.00;;;5.47;;
27636;SDS011;15049;48.114;11.486;2022-07-23T00:13:30;5.55;;;4.97;;
27636;SDS011;15049;48.114;11.486;2022-07-23T00:15:56;7.07;;;4.90;;
27636;SDS011;15049;48.114;11.486;2022-07-23T00:18:22;7.88;;;5.20;;
27636;SDS011;15049;48.114;11.486;2022-07-23T00:20:48;7.03;;;5.05;;
27636;SDS011;15049;48.114;11.486;2022-07-23T00:23:14;5.80;;;5.20;;
27636;SDS011;15049;48.114;11.486;2022-07-23T00:25:40;6.05;;;4.80;;
27636;SDS011;15049;48.114;11.486;2022-07-23T00:28:06;6.03;;;5.05;;
27636;SDS011;15049;48.114;11.486;2022-07-23T00:30:33;5.68;;;5.10;;
27636;SDS011;15049;48.114;11.486;2022-07-23T00:32:59;8.68;;;5.10;;
27636;SDS011;15049;48.114;11.486;2022-07-23T00:35:31;8.88;;;5.75;;
27636;SDS011;15049;48.114;11.486;2022-07-23T00:37:58;6.10;;;5.40;;
27636;SDS011;15049;48.114;11.486;2022-07-23T00:40:25;6.18;;;4.82;;
27636;SDS011;15049;48.114;11.486;2022-07-23T00:42:52;5.32;;;4.80;;
27636;SDS011;15049;48.114;11.486;2022-07-23T00:45:17;6.15;;;5.47;;
27636;SDS011;15049;48.114;11.486;2022-07-23T00:47:45;6.13;;;5.47;;
27636;SDS011;15049;48.114;11.486;2022-07-23T00:50:12;5.53;;;4.78;;
27636;SDS011;15049;48.114;11.486;2022-07-23T00:52:39;5.47;;;4.80;;
27636;SDS011;15049;48.114;11.486;2022-07-23T00:55:06;5.25;;;4.75;;
27636;SDS011;15049;48.114;11.486;2022-07-23T00:57:33;9.13;;;5.65;;
27636;SDS011;15049;48.114;11.486;2022-07-23T00:59:59;5.88;;;5.13;;
27636;SDS011;15049;48.114;11.486;2022-07-23T01:02:25;10.45;;;5.15;;
27636;SDS011;15049;48.114;11.486;2022-07-23T01:04:53;7.95;;;5.40;;
27636;SDS011;15049;48.114;11.486;2022-07-23T01:07:19;8.13;;;5.87;;
27636;SDS011;15049;48.114;11.486;2022-07-23T01:09:45;9.90;;;5.93;;
27636;SDS011;15049;48.114;11.486;2022-07-23T01:12:11;6.90;;;5.45;;
27636;SDS011;15049;48.114;11.486;2022-07-23T01:14:37;8.68;;;6.38;;
27636;SDS011;15049;48.114;11.486;2022-07-23T01:17:03;9.50;;;6.30;;
27636;SDS011;15049;48.114;11.486;2022-07-23T01:19:29;11.93;;;6.95;;
27636;SDS011;15049;48.114;11.486;2022-07-23T01:21:57;20.40;;;6.07;;
27636;SDS011;15049;48.114;11.486;2022-07-23T01:24:27;14.88;;;5.40;;
27636;SDS011;15049;48.114;11.486;2022-07-23T01:26:53;17.48;;;5.10;;
27636;SDS011;15049;48.114;11.486;2022-07-23T01:29:19;14.20;;;5.30;;
27636;SDS011;15049;48.114;11.486;2022-07-23T01:31:46;9.35;;;5.18;;
27636;SDS011;15049;48.114;11.486;2022-07-23T01:34:12;7.38;;;4.85;;
27636;SDS011;15049;48.114;11.486;2022-07-23T01:36:38;7.53;;;5.30;;
27636;SDS011;15049;48.114;11.486;2022-07-23T01:39:05;9.85;;;6.68;;
27636;SDS011;15049;48.114;11.486;2022-07-23T01:41:33;9.50;;;5.75;;
27636;SDS011;15049;48.114;11.486;2022-07-23T01:43:59;8.80;;;5.32;;
27636;SDS011;15049;48.114;11.486;2022-07-23T01:46:25;8.30;;;5.45;;
27636;SDS011;15049;48.114;11.486;2022-07-23T01:48:51;9.88;;;6.63;;
27636;SDS011;15049;48.114;11.486;2022-07-23T01:51:17;12.18;;;6.18;;
27636;SDS011;15049;48.114;11.486;2022-07-23T01:53:43;9.52;;;6.15;;
27636;SDS011;15049;48.114;11.486;2022-07-23T01:56:08;8.07;;;6.20;;
27636;SDS011;15049;48.114;11.486;2022-07-23T01:58:35;9.15;;;6.65;;
27636;SDS011;15049;48.114;11.486;2022-07-23T02:01:01;7.30;;;5.85;;
27636;SDS011;15049;48.114;11.486;2022-07-23T02:03:27;9.13;;;6.10;;
27636;SDS011;15049;48.114;11.486;2022-07-23T02:05:54;8.75;;;6.90;;
27636;SDS011;15049;48.114;11.486;2022-07-23T02:08:20;8.40;;;5.55;;
27636;SDS011;15049;48.114;11.486;2022-07-23T02:10:45;8.00;;;5.78;;
27636;SDS011;15049;48.114;11.486;2022-07-23T02:13:11;6.50;;;5.28;;
27636;SDS011;15049;48.114;11.486;2022-07-23T02:15:38;7.13;;;5.13;;
27636;SDS011;15049;48.114;11.486;2022-07-23T02:18:04;4.80;;;4.30;;
27636;SDS011;15049;48.114;11.486;2022-07-23T02:20:30;7.65;;;4.30;;
27636;SDS011;15049;48.114;11.486;2022-07-23T02:22:56;8.95;;;4.05;;
27636;SDS011;15049;48.114;11.486;2022-07-23T02:25:22;8.40;;;3.72;;
27636;SDS011;15049;48.114;11.486;2022-07-23T02:27:48;4.72;;;3.13;;
27636;SDS011;15049;48.114;11.486;2022-07-23T02:30:13;5.25;;;3.33;;
27636;SDS011;15049;48.114;11.486;2022-07-23T02:32:41;5.43;;;3.55;;
27636;SDS011;15049;48.114;11.486;2022-07-23T02:35:07;4.13;;;3.33;;
27636;SDS011;15049;48.114;11.486;2022-07-23T02:37:33;5.80;;;3.38;;
27636;SDS011;15049;48.114;11.486;2022-07-23T02:39:58;4.07;;;3.60;;
27636;SDS011;15049;48.114;11.486;2022-07-23T02:42:24;4.50;;;3.20;;
27636;SDS011;15049;48.114;11.486;2022-07-23T02:44:50;7.28;;;3.20;;
27636;SDS011;15049;48.114;11.486;2022-07-23T02:47:16;3.53;;;2.65;;
27636;SDS011;15049;48.114;11.486;2022-07-23T02:49:44;3.00;;;2.30;;
27636;SDS011;15049;48.114;11.486;2022-07-23T02:52:09;7.10;;;3.25;;
27636;SDS011;15049;48.114;11.486;2022-07-23T02:54:35;3.67;;;2.60;;
27636;SDS011;15049;48.114;11.486;2022-07-23T02:57:01;4.97;;;3.63;;
27636;SDS011;15049;48.114;11.486;2022-07-23T02:59:27;4.03;;;3.25;;
27636;SDS011;15049;48.114;11.486;2022-07-23T03:01:53;5.13;;;3.38;;
27636;SDS011;15049;48.114;11.486;2022-07-23T03:04:18;6.57;;;3.63;;
27636;SDS011;15049;48.114;11.486;2022-07-23T03:06:45;7.43;;;4.40;;
27636;SDS011;15049;48.114;11.486;2022-07-23T03:09:11;5.53;;;4.20;;
27636;SDS011;15049;48.114;11.486;2022-07-23T03:11:37;5.57;;;4.20;;
27636;SDS011;15049;48.114;11.486;2022-07-23T03:14:03;5.60;;;4.30;;
27636;SDS011;15049;48.114;11.486;2022-07-23T03:16:28;5.13;;;4.45;;
27636;SDS011;15049;48.114;11.486;2022-07-23T03:18:54;5.35;;;4.43;;
27636;SDS011;15049;48.114;11.486;2022-07-23T03:21:20;6.90;;;4.55;;
27636;SDS011;15049;48.114;11.486;2022-07-23T03:23:47;7.05;;;4.55;;
27636;SDS011;15049;48.114;11.486;2022-07-23T03:26:13;8.63;;;4.80;;
27636;SDS011;15049;48.114;11.486;2022-07-23T03:28:38;4.57;;;4.13;;
27636;SDS011;15049;48.114;11.486;2022-07-23T03:31:04;6.07;;;4.22;;
27636;SDS011;15049;48.114;11.486;2022-07-23T03:33:30;5.93;;;4.75;;
27636;SDS011;15049;48.114;11.486;2022-07-23T03:35:55;5.95;;;4.93;;
27636;SDS011;15049;48.114;11.486;2022-07-23T03:38:21;6.47;;;4.45;;
27636;SDS011;15049;48.114;11.486;2022-07-23T03:40:48;8.60;;;4.78;;
27636;SDS011;15049;48.114;11.486;2022-07-23T03:43:14;8.57;;;4.43;;
27636;SDS011;15049;48.114;11.486;2022-07-23T03:45:40;4.95;;;3.97;;
27636;SDS011;15049;48.114;11.486;2022-07-23T03:48:06;6.15;;;4.20;;
27636;SDS011;15049;48.114;11.486;2022-07-23T03:50:31;6.75;;;4.45;;
27636;SDS011;15049;48.114;11.486;2022-07-23T03:52:57;8.60;;;4.38;;
27636;SDS011;15049;48.114;11.486;2022-07-23T03:55:23;5.20;;;4.47;;
27636;SDS011;15049;48.114;11.486;2022-07-23T03:57:50;5.60;;;4.72;;
27636;SDS011;15049;48.114;11.486;2022-07-23T04:00:16;5.38;;;4.38;;
27636;SDS011;15049;48.114;11.486;2022-07-23T04:02:42;5.13;;;4.10;;
27636;SDS011;15049;48.114;11.486;2022-07-23T04:05:08;7.90;;;4.50;;
27636;SDS011;15049;48.114;11.486;2022-07-23T04:07:34;6.93;;;4.00;;
27636;SDS011;15049;48.114;11.486;2022-07-23T04:09:59;6.85;;;4.75;;
27636;SDS011;15049;48.114;11.486;2022-07-23T04:12:26;9.05;;;4.97;;
27636;SDS011;15049;48.114;11.486;2022-07-23T04:14:53;6.13;;;4.53;;
27636;SDS011;15049;48.114;11.486;2022-07-23T04:17:18;5.93;;;4.50;;
27636;SDS011;15049;48.114;11.486;2022-07-23T04:19:44;5.97;;;4.38;;
27636;SDS011;15049;48.114;11.486;2022-07-23T04:22:10;6.25;;;4.85;;
27636;SDS011;15049;48.114;11.486;2022-07-23T04:24:36;5.00;;;4.50;;
27636;SDS011;15049;48.114;11.486;2022-07-23T04:27:03;5.28;;;4.53;;
27636;SDS011;15049;48.114;11.486;2022-07-23T04:29:29;6.93;;;4.82;;
27636;SDS011;15049;48.114;11.486;2022-07-23T04:31:56;6.63;;;4.53;;
27636;SDS011;15049;48.114;11.486;2022-07-23T04:34:22;6.20;;;4.85;;
27636;SDS011;15049;48.114;11.486;2022-07-23T04:36:47;9.60;;;5.40;;
27636;SDS011;15049;48.114;11.486;2022-07-23T04:39:13;6.97;;;4.90;;
27636;SDS011;15049;48.114;11.486;2022-07-23T04:41:39;7.18;;;4.80;;
27636;SDS011;15049;48.114;11.486;2022-07-23T04:44:05;9.13;;;5.72;;
27636;SDS011;15049;48.114;11.486;2022-07-23T04:46:31;5.70;;;4.78;;
27636;SDS011;15049;48.114;11.486;2022-07-23T04:48:58;6.18;;;4.65;;
27636;SDS011;15049;48.114;11.486;2022-07-23T04:51:23;5.15;;;4.65;;
27636;SDS011;15049;48.114;11.486;2022-07-23T04:53:49;5.97;;;4.50;;
27636;SDS011;15049;48.114;11.486;2022-07-23T04:56:15;6.68;;;4.65;;
27636;SDS011;15049;48.114;11.486;2022-07-23T04:58:41;7.07;;;4.88;;
27636;SDS011;15049;48.114;11.486;2022-07-23T05:01:07;6.28;;;4.38;;
27636;SDS011;15049;48.114;11.486;2022-07-23T05:03:33;7.95;;;4.57;;
27636;SDS011;15049;48.114;11.486;2022-07-23T05:06:00;7.25;;;4.68;;
27636;SDS011;15049;48.114;11.486;2022-07-23T05:10:53;7.65;;;4.80;;
27636;SDS011;15049;48.114;11.486;2022-07-23T05:13:19;10.23;;;5.72;;
27636;SDS011;15049;48.114;11.486;2022-07-23T05:15:45;9.73;;;6.13;;
27636;SDS011;15049;48.114;11.486;2022-07-23T05:18:11;7.88;;;5.30;;
27636;SDS011;15049;48.114;11.486;2022-07-23T05:20:37;6.45;;;4.80;;
27636;SDS011;15049;48.114;11.486;2022-07-23T05:23:04;9.65;;;6.35;;
27636;SDS011;15049;48.114;11.486;2022-07-23T05:25:30;8.13;;;6.88;;
27636;SDS011;15049;48.114;11.486;2022-07-23T05:27:56;7.30;;;5.50;;
27636;SDS011;15049;48.114;11.486;2022-07-23T05:30:22;7.03;;;5.15;;
27636;SDS011;15049;48.114;11.486;2022-07-23T05:32:47;8.70;;;5.22;;
27636;SDS011;15049;48.114;11.486;2022-07-23T05:35:13;8.38;;;5.32;;
27636;SDS011;15049;48.114;11.486;2022-07-23T05:37:39;9.00;;;5.47;;
27636;SDS011;15049;48.114;11.486;2022-07-23T05:40:07;6.82;;;5.10;;
27636;SDS011;15049;48.114;11.486;2022-07-23T05:42:35;6.15;;;4.88;;
27636;SDS011;15049;48.114;11.486;2022-07-23T05:45:01;6.75;;;5.75;;
27636;SDS011;15049;48.114;11.486;2022-07-23T05:47:27;6.95;;;5.35;;
27636;SDS011;15049;48.114;11.486;2022-07-23T05:49:53;7.95;;;5.45;;
27636;SDS011;15049;48.114;11.486;2022-07-23T05:52:19;5.85;;;5.28;;
27636;SDS011;15049;48.114;11.486;2022-07-23T05:54:45;5.75;;;4.53;;
27636;SDS011;15049;48.114;11.486;2022-07-23T05:57:12;6.90;;;4.43;;
27636;SDS011;15049;48.114;11.486;2022-07-23T05:59:38;5.05;;;4.55;;
27636;SDS011;15049;48.114;11.486;2022-07-23T06:02:03;6.20;;;5.15;;
27636;SDS011;15049;48.114;11.486;2022-07-23T06:04:29;7.88;;;5.35;;
27636;SDS011;15049;48.114;11.486;2022-07-23T06:06:55;6.22;;;4.90;;
27636;SDS011;15049;48.114;11.486;2022-07-23T06:09:21;7.75;;;5.70;;
27636;SDS011;15049;48.114;11.486;2022-07-23T06:11:46;9.40;;;5.80;;
27636;SDS011;15049;48.114;11.486;2022-07-23T06:14:14;9.68;;;6.32;;
27636;SDS011;15049;48.114;11.486;2022-07-23T06:16:39;8.50;;;6.40;;
27636;SDS011;15049;48.114;11.486;2022-07-23T06:19:05;8.18;;;6.60;;
27636;SDS011;15049;48.114;11.486;2022-07-23T06:21:31;8.15;;;5.82;;
27636;SDS011;15049;48.114;11.486;2022-07-23T06:23:56;7.65;;;5.88;;
27636;SDS011;15049;48.114;11.486;2022-07-23T06:26:22;7.80;;;5.65;;
27636;SDS011;15049;48.114;11.486;2022-07-23T06:28:48;7.75;;;5.82;;
27636;SDS011;15049;48.114;11.486;2022-07-23T06:31:15;9.88;;;5.78;;
27636;SDS011;15049;48.114;11.486;2022-07-23T06:33:41;9.05;;;5.65;;
27636;SDS011;15049;48.114;11.486;2022-07-23T06:36:06;8.63;;;5.70;;
27636;SDS011;15049;48.114;11.486;2022-07-23T06:38:32;8.13;;;5.70;;
27636;SDS011;15049;48.114;11.486;2022-07-23T06:40:58;8.35;;;5.43;;
27636;SDS011;15049;48.114;11.486;2022-07-23T06:43:24;7.43;;;5.43;;
27636;SDS011;15049;48.114;11.486;2022-07-23T06:45:49;6.88;;;5.25;;
27636;SDS011;15049;48.114;11.486;2022-07-23T06:48:16;7.40;;;5.22;;
27636;SDS011;15049;48.114;11.486;2022-07-23T06:50:42;6.50;;;5.68;;
27636;SDS011;15049;48.114;11.486;2022-07-23T06:53:08;7.40;;;5.70;;
27636;SDS011;15049;48.114;11.486;2022-07-23T06:55:34;6.32;;;5.72;;
27636;SDS011;15049;48.114;11.486;2022-07-23T06:58:03;7.45;;;5.43;;
27636;SDS011;15049;48.114;11.486;2022-07-23T07:00:29;7.43;;;5.82;;
27636;SDS011;15049;48.114;11.486;2022-07-23T07:02:56;6.05;;;5.38;;
27636;SDS011;15049;48.114;11.486;2022-07-23T07:05:23;7.55;;;5.80;;
27636;SDS011;15049;48.114;11.486;2022-07-23T07:07:52;7.57;;;5.38;;
27636;SDS011;15049;48.114;11.486;2022-07-23T07:10:18;7.07;;;5.32;;
27636;SDS011;15049;48.114;11.486;2022-07-23T07:12:44;6.10;;;5.50;;
27636;SDS011;15049;48.114;11.486;2022-07-23T07:15:10;7.85;;;5.82;;
27636;SDS011;15049;48.114;11.486;2022-07-23T07:17:36;6.70;;;5.72;;
27636;SDS011;15049;48.114;11.486;2022-07-23T07:20:03;7.50;;;5.75;;
27636;SDS011;15049;48.114;11.486;2022-07-23T07:22:31;8.77;;;5.72;;
27636;SDS011;15049;48.114;11.486;2022-07-23T07:24:57;10.23;;;6.45;;
27636;SDS011;15049;48.114;11.486;2022-07-23T07:27:23;6.45;;;5.43;;
27636;SDS011;15049;48.114;11.486;2022-07-23T07:29:49;7.30;;;6.28;;
27636;SDS011;15049;48.114;11.486;2022-07-23T07:32:14;6.70;;;5.50;;
27636;SDS011;15049;48.114;11.486;2022-07-23T07:34:40;8.52;;;5.95;;
27636;SDS011;15049;48.114;11.486;2022-07-23T07:37:06;7.28;;;5.32;;
27636;SDS011;15049;48.114;11.486;2022-07-23T07:39:33;7.70;;;6.00;;
27636;SDS011;15049;48.114;11.486;2022-07-23T07:41:59;6.97;;;6.10;;
27636;SDS011;15049;48.114;11.486;2022-07-23T07:44:25;6.75;;;6.03;;
27636;SDS011;15049;48.114;11.486;2022-07-23T07:46:51;8.27;;;6.35;;
27636;SDS011;15049;48.114;11.486;2022-07-23T07:49:18;8.27;;;6.32;;
27636;SDS011;15049;48.114;11.486;2022-07-23T07:51:44;8.20;;;6.28;;
27636;SDS011;15049;48.114;11.486;2022-07-23T07:54:10;7.60;;;5.57;;
27636;SDS011;15049;48.114;11.486;2022-07-23T07:56:37;5.55;;;5.05;;
27636;SDS011;15049;48.114;11.486;2022-07-23T07:59:03;8.18;;;5.95;;
27636;SDS011;15049;48.114;11.486;2022-07-23T08:01:29;6.85;;;6.13;;
27636;SDS011;15049;48.114;11.486;2022-07-23T08:03:55;6.18;;;5.57;;
27636;SDS011;15049;48.114;11.486;2022-07-23T08:06:21;6.18;;;5.63;;
27636;SDS011;15049;48.114;11.486;2022-07-23T08:08:47;6.63;;;5.78;;
27636;SDS011;15049;48.114;11.486;2022-07-23T08:11:13;8.43;;;5.47;;
27636;SDS011;15049;48.114;11.486;2022-07-23T08:13:40;6.47;;;5.68;;
27636;SDS011;15049;48.114;11.486;2022-07-23T08:16:06;6.75;;;6.05;;
27636;SDS011;15049;48.114;11.486;2022-07-23T08:18:32;6.13;;;5.53;;
27636;SDS011;15049;48.114;11.486;2022-07-23T08:20:58;7.82;;;5.40;;
27636;SDS011;15049;48.114;11.486;2022-07-23T08:23:23;8.02;;;5.63;;
27636;SDS011;15049;48.114;11.486;2022-07-23T08:25:50;6.90;;;4.97;;
27636;SDS011;15049;48.114;11.486;2022-07-23T08:28:15;6.05;;;5.10;;
27636;SDS011;15049;48.114;11.486;2022-07-23T08:30:44;9.38;;;5.35;;
27636;SDS011;15049;48.114;11.486;2022-07-23T08:33:11;6.22;;;5.03;;
27636;SDS011;15049;48.114;11.486;2022-07-23T08:35:41;7.25;;;5.50;;
27636;SDS011;15049;48.114;11.486;2022-07-23T08:38:09;6.28;;;5.00;;
27636;SDS011;15049;48.114;11.486;2022-07-23T08:40:36;10.20;;;5.20;;
27636;SDS011;15049;48.114;11.486;2022-07-23T08:43:04;7.90;;;5.50;;
27636;SDS011;15049;48.114;11.486;2022-07-23T08:45:31;6.07;;;5.25;;
27636;SDS011;15049;48.114;11.486;2022-07-23T08:48:03;7.35;;;5.20;;
27636;SDS011;15049;48.114;11.486;2022-07-23T08:50:32;5.35;;;4.75;;
27636;SDS011;15049;48.114;11.486;2022-07-23T08:52:59;5.72;;;4.82;;
27636;SDS011;15049;48.114;11.486;2022-07-23T08:55:26;6.05;;;4.47;;
27636;SDS011;15049;48.114;11.486;2022-07-23T08:57:52;6.65;;;4.65;;
27636;SDS011;15049;48.114;11.486;2022-07-23T09:00:19;6.00;;;4.65;;
27636;SDS011;15049;48.114;11.486;2022-07-23T09:02:46;5.30;;;4.70;;
27636;SDS011;15049;48.114;11.486;2022-07-23T09:05:15;5.13;;;4.53;;
27636;SDS011;15049;48.114;11.486;2022-07-23T09:10:46;6.97;;;4.53;;
27636;SDS011;15049;48.114;11.486;2022-07-23T09:13:24;5.38;;;4.32;;
27636;SDS011;15049;48.114;11.486;2022-07-23T09:15:53;5.00;;;4.50;;
27636;SDS011;15049;48.114;11.486;2022-07-23T09:18:27;7.57;;;5.15;;
27636;SDS011;15049;48.114;11.486;2022-07-23T09:21:08;6.85;;;4.32;;
27636;SDS011;15049;48.114;11.486;2022-07-23T09:23:39;9.35;;;5.03;;
27636;SDS011;15049;48.114;11.486;2022-07-23T09:26:17;4.97;;;4.10;;
27636;SDS011;15049;48.114;11.486;2022-07-23T09:28:52;7.13;;;5.27;;
27636;SDS011;15049;48.114;11.486;2022-07-23T09:31:20;5.07;;;4.57;;
27636;SDS011;15049;48.114;11.486;2022-07-23T09:33:46;5.25;;;4.30;;
27636;SDS011;15049;48.114;11.486;2022-07-23T09:36:13;4.78;;;4.32;;
27636;SDS011;15049;48.114;11.486;2022-07-23T09:38:47;6.22;;;4.70;;
27636;SDS011;15049;48.114;11.486;2022-07-23T09:41:13;6.60;;;4.80;;
27636;SDS011;15049;48.114;11.486;2022-07-23T09:43:40;6.35;;;4.18;;
27636;SDS011;15049;48.114;11.486;2022-07-23T09:46:18;5.72;;;4.57;;
27636;SDS011;15049;48.114;11.486;2022-07-23T09:48:46;5.47;;;4.40;;
27636;SDS011;15049;48.114;11.486;2022-07-23T09:51:13;4.20;;;3.75;;
27636;SDS011;15049;48.114;11.486;2022-07-23T09:53:43;4.78;;;4.07;;
27636;SDS011;15049;48.114;11.486;2022-07-23T09:56:09;5.43;;;4.00;;
27636;SDS011;15049;48.114;11.486;2022-07-23T09:58:39;6.82;;;3.95;;
27636;SDS011;15049;48.114;11.486;2022-07-23T10:01:11;5.72;;;4.80;;
27636;SDS011;15049;48.114;11.486;2022-07-23T10:03:38;8.18;;;5.80;;
27636;SDS011;15049;48.114;11.486;2022-07-23T10:06:05;7.97;;;3.95;;
27636;SDS011;15049;48.114;11.486;2022-07-23T10:08:34;6.45;;;4.03;;
27636;SDS011;15049;48.114;11.486;2022-07-23T10:11:00;6.85;;;4.38;;
27636;SDS011;15049;48.114;11.486;2022-07-23T10:13:28;7.07;;;4.60;;
27636;SDS011;15049;48.114;11.486;2022-07-23T10:16:12;5.07;;;3.95;;
27636;SDS011;15049;48.114;11.486;2022-07-23T10:18:39;4.28;;;3.65;;
27636;SDS011;15049;48.114;11.486;2022-07-23T10:21:05;4.90;;;3.40;;
27636;SDS011;15049;48.114;11.486;2022-07-23T10:23:33;5.23;;;4.37;;
27636;SDS011;15049;48.114;11.486;2022-07-23T10:26:05;5.57;;;4.10;;
27636;SDS011;15049;48.114;11.486;2022-07-23T10:28:48;4.30;;;3.70;;
27636;SDS011;15049;48.114;11.486;2022-07-23T10:31:30;5.32;;;3.63;;
27636;SDS011;15049;48.114;11.486;2022-07-23T10:34:07;6.78;;;3.88;;
27636;SDS011;15049;48.114;11.486;2022-07-23T10:36:40;5.07;;;3.60;;
27636;SDS011;15049;48.114;11.486;2022-07-23T10:39:13;4.47;;;3.50;;
27636;SDS011;15049;48.114;11.486;2022-07-23T10:41:44;5.55;;;3.45;;
27636;SDS011;15049;48.114;11.486;2022-07-23T10:44:10;8.20;;;3.55;;
27636;SDS011;15049;48.114;11.486;2022-07-23T10:49:37;5.15;;;3.50;;
27636;SDS011;15049;48.114;11.486;2022-07-23T10:52:15;5.80;;;3.83;;
27636;SDS011;15049;48.114;11.486;2022-07-23T10:54:50;5.18;;;3.72;;
27636;SDS011;15049;48.114;11.486;2022-07-23T10:57:18;5.50;;;4.18;;
27636;SDS011;15049;48.114;11.486;2022-07-23T11:02:49;5.53;;;4.13;;
27636;SDS011;15049;48.114;11.486;2022-07-23T11:05:17;5.90;;;3.67;;
27636;SDS011;15049;48.114;11.486;2022-07-23T11:10:38;6.10;;;3.70;;
27636;SDS011;15049;48.114;11.486;2022-07-23T11:16:04;4.53;;;3.58;;
27636;SDS011;15049;48.114;11.486;2022-07-23T11:24:21;4.75;;;3.50;;
27636;SDS011;15049;48.114;11.486;2022-07-23T11:27:00;6.07;;;3.78;;
27636;SDS011;15049;48.114;11.486;2022-07-23T11:29:37;6.95;;;4.18;;
27636;SDS011;15049;48.114;11.486;2022-07-23T11:32:23;4.93;;;3.47;;
27636;SDS011;15049;48.114;11.486;2022-07-23T11:35:21;4.88;;;4.00;;
27636;SDS011;15049;48.114;11.486;2022-07-23T11:37:48;6.53;;;4.45;;
27636;SDS011;15049;48.114;11.486;2022-07-23T11:40:18;5.90;;;3.90;;
27636;SDS011;15049;48.114;11.486;2022-07-23T11:42:54;7.38;;;4.07;;
27636;SDS011;15049;48.114;11.486;2022-07-23T11:45:22;5.80;;;4.05;;
27636;SDS011;15049;48.114;11.486;2022-07-23T11:47:49;7.07;;;3.85;;
27636;SDS011;15049;48.114;11.486;2022-07-23T11:50:15;5.15;;;4.60;;
27636;SDS011;15049;48.114;11.486;2022-07-23T11:52:41;5.10;;;4.50;;
27636;SDS011;15049;48.114;11.486;2022-07-23T11:55:07;7.45;;;4.43;;
27636;SDS011;15049;48.114;11.486;2022-07-23T11:57:35;4.75;;;4.05;;
27636;SDS011;15049;48.114;11.486;2022-07-23T12:00:05;5.38;;;4.40;;
27636;SDS011;15049;48.114;11.486;2022-07-23T12:02:33;5.32;;;4.20;;
27636;SDS011;15049;48.114;11.486;2022-07-23T12:04:59;6.60;;;4.50;;
27636;SDS011;15049;48.114;11.486;2022-07-23T12:07:25;5.32;;;4.30;;
27636;SDS011;15049;48.114;11.486;2022-07-23T12:09:57;6.88;;;4.68;;
27636;SDS011;15049;48.114;11.486;2022-07-23T12:12:24;7.32;;;4.60;;
27636;SDS011;15049;48.114;11.486;2022-07-23T12:14:51;7.28;;;4.50;;
27636;SDS011;15049;48.114;11.486;2022-07-23T12:17:20;5.85;;;4.40;;
27636;SDS011;15049;48.114;11.486;2022-07-23T12:19:51;4.55;;;4.03;;
27636;SDS011;15049;48.114;11.486;2022-07-23T12:22:17;6.00;;;4.13;;
27636;SDS011;15049;48.114;11.486;2022-07-23T12:24:53;6.28;;;4.38;;
27636;SDS011;15049;48.114;11.486;2022-07-23T12:27:23;4.88;;;4.35;;
27636;SDS011;15049;48.114;11.486;2022-07-23T12:29:49;6.72;;;4.15;;
27636;SDS011;15049;48.114;11.486;2022-07-23T12:32:21;6.13;;;4.57;;
27636;SDS011;15049;48.114;11.486;2022-07-23T12:34:48;7.28;;;4.53;;
27636;SDS011;15049;48.114;11.486;2022-07-23T12:37:26;6.18;;;4.40;;
27636;SDS011;15049;48.114;11.486;2022-07-23T12:39:56;6.13;;;4.65;;
27636;SDS011;15049;48.114;11.486;2022-07-23T12:42:22;8.75;;;4.35;;
27636;SDS011;15049;48.114;11.486;2022-07-23T12:45:05;5.93;;;4.35;;
27636;SDS011;15049;48.114;11.486;2022-07-23T12:53:15;6.82;;;4.35;;
27636;SDS011;15049;48.114;11.486;2022-07-23T12:55:42;6.27;;;4.40;;
27636;SDS011;15049;48.114;11.486;2022-07-23T12:58:10;5.63;;;4.30;;
27636;SDS011;15049;48.114;11.486;2022-07-23T13:03:28;6.97;;;4.72;;
27636;SDS011;15049;48.114;11.486;2022-07-23T13:05:56;6.68;;;4.43;;
27636;SDS011;15049;48.114;11.486;2022-07-23T13:08:22;5.80;;;4.50;;
27636;SDS011;15049;48.114;11.486;2022-07-23T13:10:49;5.95;;;4.32;;
27636;SDS011;15049;48.114;11.486;2022-07-23T13:13:16;5.70;;;4.18;;
27636;SDS011;15049;48.114;11.486;2022-07-23T13:15:44;5.28;;;4.22;;
27636;SDS011;15049;48.114;11.486;2022-07-23T13:18:10;5.35;;;4.05;;
27636;SDS011;15049;48.114;11.486;2022-07-23T13:20:37;5.35;;;4.25;;
27636;SDS011;15049;48.114;11.486;2022-07-23T13:23:04;9.55;;;4.30;;
27636;SDS011;15049;48.114;11.486;2022-07-23T13:25:30;6.68;;;4.90;;
27636;SDS011;15049;48.114;11.486;2022-07-23T13:27:56;5.93;;;4.43;;
27636;SDS011;15049;48.114;11.486;2022-07-23T13:30:21;6.65;;;4.53;;
27636;SDS011;15049;48.114;11.486;2022-07-23T13:32:47;7.43;;;4.78;;
27636;SDS011;15049;48.114;11.486;2022-07-23T13:35:13;6.43;;;4.75;;
27636;SDS011;15049;48.114;11.486;2022-07-23T13:37:41;5.90;;;4.40;;
27636;SDS011;15049;48.114;11.486;2022-07-23T13:40:07;5.07;;;4.57;;
27636;SDS011;15049;48.114;11.486;2022-07-23T13:42:33;5.68;;;4.38;;
27636;SDS011;15049;48.114;11.486;2022-07-23T13:44:59;4.63;;;4.07;;
27636;SDS011;15049;48.114;11.486;2022-07-23T13:47:24;6.50;;;4.30;;
27636;SDS011;15049;48.114;11.486;2022-07-23T13:49:50;6.93;;;4.50;;
27636;SDS011;15049;48.114;11.486;2022-07-23T13:52:16;4.80;;;3.70;;
27636;SDS011;15049;48.114;11.486;2022-07-23T13:54:43;5.22;;;4.60;;
27636;SDS011;15049;48.114;11.486;2022-07-23T13:57:09;7.53;;;4.65;;
27636;SDS011;15049;48.114;11.486;2022-07-23T13:59:35;5.03;;;4.53;;
27636;SDS011;15049;48.114;11.486;2022-07-23T14:02:01;5.85;;;4.25;;
27636;SDS011;15049;48.114;11.486;2022-07-23T14:04:27;4.90;;;4.40;;
27636;SDS011;15049;48.114;11.486;2022-07-23T14:06:53;5.95;;;4.40;;
27636;SDS011;15049;48.114;11.486;2022-07-23T14:09:18;4.97;;;4.47;;
27636;SDS011;15049;48.114;11.486;2022-07-23T14:11:45;5.97;;;4.05;;
27636;SDS011;15049;48.114;11.486;2022-07-23T14:14:11;8.00;;;4.28;;
27636;SDS011;15049;48.114;11.486;2022-07-23T14:16:39;7.40;;;4.38;;
27636;SDS011;15049;48.114;11.486;2022-07-23T14:19:05;7.97;;;4.30;;
27636;SDS011;15049;48.114;11.486;2022-07-23T14:21:30;5.25;;;4.75;;
27636;SDS011;15049;48.114;11.486;2022-07-23T14:23:56;7.13;;;4.65;;
27636;SDS011;15049;48.114;11.486;2022-07-23T14:26:22;5.20;;;4.40;;
27636;SDS011;15049;48.114;11.486;2022-07-23T14:28:49;7.82;;;4.72;;
27636;SDS011;15049;48.114;11.486;2022-07-23T14:31:15;5.43;;;4.70;;
27636;SDS011;15049;48.114;11.486;2022-07-23T14:33:41;6.70;;;4.68;;
27636;SDS011;15049;48.114;11.486;2022-07-23T14:36:07;5.53;;;4.47;;
27636;SDS011;15049;48.114;11.486;2022-07-23T14:38:33;7.13;;;4.40;;
27636;SDS011;15049;48.114;11.486;2022-07-23T14:40:59;5.03;;;4.53;;
27636;SDS011;15049;48.114;11.486;2022-07-23T14:43:24;5.82;;;4.65;;
27636;SDS011;15049;48.114;11.486;2022-07-23T14:45:51;5.47;;;4.47;;
27636;SDS011;15049;48.114;11.486;2022-07-23T14:48:17;5.80;;;5.07;;
27636;SDS011;15049;48.114;11.486;2022-07-23T14:50:43;6.70;;;4.75;;
27636;SDS011;15049;48.114;11.486;2022-07-23T14:53:09;6.18;;;4.80;;
27636;SDS011;15049;48.114;11.486;2022-07-23T14:55:35;5.32;;;4.65;;
27636;SDS011;15049;48.114;11.486;2022-07-23T14:58:01;6.57;;;4.75;;
27636;SDS011;15049;48.114;11.486;2022-07-23T15:00:26;5.40;;;4.90;;
27636;SDS011;15049;48.114;11.486;2022-07-23T15:02:54;6.85;;;4.95;;
27636;SDS011;15049;48.114;11.486;2022-07-23T15:05:22;6.28;;;4.95;;